Allendale, Illinois
Current Conditions -  °F | °C
As of 7:35 AM on Saturday 25 Oct 2014 (Local Time) from KAJG Reporting Station
Overcast Overcast  
Wind Chill: 61°   Ceiling: 4800
Heat Index: 61°   Visibility: 10mi
Dew Point: 55°   Wind: 5mph
Humidity: 82%   Direction: 250°WSW
Pressure: 30.01"   Gusts: NA
Location:  38.53°N, 87.71°W
Report Text: KAJG 251235Z AUTO 25004KT 10SM OVC048 16/13 A3001 RMK AO2
Loading
Personal Weather Stations






























Interactive Weather Map New forecast layout! Learn more

10-Day Weather Forecast

Advertisements
Track Severe Weather on mobile